LFLC/CFE METAR and TAF weather

Enter ICAO airport designator
Station Type Date Time Source
LFLC METAR 2020/09/22 05:00 UTC NOAA

LFLC 220500Z AUTO 35002KT CAVOK 15/13 Q1014 TEMPO 4000 MIFG SCT040CB BKN060


Station Type Date Time Source
LFLC Decoded METAR 2020/09/22 05:00 UTC NOAA

Clermont-Ferrand, France (LFLC) 45-47N 003-10E 330M
Sep 22, 2020 - 01:00 AM EDT / 2020.09.22 0500 UTC
Wind: from the N (350 degrees) at 2 MPH (2 KT):0
Visibility: greater than 7 mile(s):0
Weather: Cumulonimbus clouds observed
Temperature: 59 F (15 C)
Dew Point: 55 F (13 C)
Relative Humidity: 87%
Pressure (altimeter): 29.94 in. Hg (1014 hPa)
ob: LFLC 220500Z AUTO 35002KT CAVOK 15/13 Q1014 TEMPO 4000 MIFG SCT040CB BKN060
cycle: 5

Station Type Date Time Source
LFLC TAF 2020/09/22 03:21 UTC NOAA

TAF LFLC 220200Z 2203/2303 VRB03KT CAVOK PROB30
TEMPO 2204/2207 4000 MIFG PROB40
TEMPO 2203/2303 4000 SHRA SCT040CB BKN060 PROB40
TEMPO 2212/2218 VRB15G25KT 2000 TSRA BKN030CB

Example: see airport list